Observation data for Jayton on 12/09/2018      Previous  Date       Current Mesonet Observations  Soil Data  Daily Summary Page  Observations in Plain Language
KJTS 090600Z 30006KT M04/M03 A3032 RMK A01 T10391030  RH  -9999%=      5-min Rain = 0
KJTS 090605Z 30005KT M04/M03 A3032 RMK A01 T10391029  RH  -9999%=      5-min Rain = 0
KJTS 090610Z 30005KT M04/M03 A3032 RMK A01 T10401031  RH  -9999%=      5-min Rain = 0
KJTS 090615Z 30005KT M04/M03 A3032 RMK A01 T10401030  RH  -9999%=      5-min Rain = 0
KJTS 090620Z 30005KT M04/M03 A3032 RMK A01 T10391029  RH  -9999%=      5-min Rain = 0
KJTS 090625Z 29005KT M04/M03 A3032 RMK A01 T10401030  RH  -9999%=      5-min Rain = 0
KJTS 090630Z 29005KT M04/M03 A3032 RMK A01 T10401030  RH  -9999%=      5-min Rain = 0
KJTS 090635Z 29006KT M04/M03 A3032 RMK A01 T10401033  RH  -9999%=      5-min Rain = 0
KJTS 090640Z 29005KT M04/M03 A3032 RMK A01 T10391032  RH  -9999%=      5-min Rain = 0
KJTS 090645Z 30004KT M04/M04 A3032 RMK A01 T10401041  RH  100%=      5-min Rain = 0
KJTS 090650Z 29004KT M04/M04 A3032 RMK A01 T10431044  RH  099%=      5-min Rain = 0
KJTS 090655Z 29004KT M04/M04 A3032 RMK A01 T10431043  RH  100%=      5-min Rain = 0
KJTS 090700Z 28005KT M04/M04 A3032 RMK A01 T10421043  RH  100%=      5-min Rain = 0
KJTS 090705Z 29004KT M04/M04 A3032 RMK A01 T10431044  RH  100%=      5-min Rain = 0
KJTS 090710Z 29005KT M04/M05 A3032 RMK A01 T10441045  RH  100%=      5-min Rain = 0
KJTS 090715Z 29004KT M05/M05 A3031 RMK A01 T10461050  RH  098%=      5-min Rain = 0
KJTS 090720Z 30004KT M05/M05 A3031 RMK A01 T10491054  RH  097%=      5-min Rain = 0
KJTS 090725Z 31004KT M05/M06 A3031 RMK A01 T10511055  RH  097%=      5-min Rain = 0
KJTS 090730Z 31004KT M05/M05 A3031 RMK A01 T10521054  RH  099%=      5-min Rain = 0
KJTS 090735Z 31005KT M05/M06 A3031 RMK A01 T10541057  RH  098%=      5-min Rain = 0
KJTS 090740Z 31005KT M06/M06 A3032 RMK A01 T10551055  RH  100%=      5-min Rain = 0
KJTS 090745Z 30005KT M05/M05 A3032 RMK A01 T10531054  RH  100%=      5-min Rain = 0
KJTS 090750Z 29005KT M05/M05 A3032 RMK A01 T10531054  RH  100%=      5-min Rain = 0
KJTS 090755Z 30005KT M06/M06 A3032 RMK A01 T10551056  RH  099%=      5-min Rain = 0
KJTS 090800Z 31004KT M06/M06 A3031 RMK A01 T10571059  RH  098%=      5-min Rain = 0
KJTS 090805Z 32005KT M06/M06 A3032 RMK A01 T10561056  RH  100%=      5-min Rain = 0
KJTS 090810Z 33005KT M06/M06 A3032 RMK A01 T10551055  RH  100%=      5-min Rain = 0
KJTS 090815Z 33006KT M06/M06 A3031 RMK A01 T10551058  RH  098%=      5-min Rain = 0
KJTS 090820Z 32005KT M06/M06 A3031 RMK A01 T10561062  RH  096%=      5-min Rain = 0
KJTS 090825Z 31005KT M06/M06 A3031 RMK A01 T10561061  RH  096%=      5-min Rain = 0
KJTS 090830Z 31006KT M06/M06 A3031 RMK A01 T10551062  RH  095%=      5-min Rain = 0
KJTS 090835Z 32006KT M06/M07 A3031 RMK A01 T10611069  RH  094%=      5-min Rain = 0
KJTS 090840Z 28006KT M06/M07 A3031 RMK A01 T10601066  RH  096%=      5-min Rain = 0
KJTS 090845Z 30006KT M06/M07 A3031 RMK A01 T10601066  RH  096%=      5-min Rain = 0
KJTS 090850Z 32006KT M06/M07 A3031 RMK A01 T10621069  RH  095%=      5-min Rain = 0
KJTS 090855Z 32006KT M06/M07 A3031 RMK A01 T10631070  RH  095%=      5-min Rain = 0
KJTS 090900Z 31006KT M07/M07 A3032 RMK A01 T10661073  RH  095%=      5-min Rain = 0
KJTS 090905Z 31005KT M07/M07 A3032 RMK A01 T10651071  RH  096%=      5-min Rain = 0
KJTS 090910Z 31005KT M07/M07 A3031 RMK A01 T10651070  RH  096%=      5-min Rain = 0
KJTS 090915Z 31005KT M07/M07 A3031 RMK A01 T10651071  RH  096%=      5-min Rain = 0
KJTS 090920Z 30005KT M07/M07 A3031 RMK A01 T10661072  RH  096%=      5-min Rain = 0
KJTS 090925Z 30005KT M06/M07 A3031 RMK A01 T10641069  RH  096%=      5-min Rain = 0
KJTS 090930Z 30005KT M07/M07 A3031 RMK A01 T10661073  RH  095%=      5-min Rain = 0
KJTS 090935Z 30005KT M07/M08 A3031 RMK A01 T10691076  RH  095%=      5-min Rain = 0
KJTS 090940Z 30005KT M07/M08 A3032 RMK A01 T10701075  RH  096%=      5-min Rain = 0
KJTS 090945Z 29005KT M07/M07 A3032 RMK A01 T10691073  RH  097%=      5-min Rain = 0
KJTS 090950Z 29005KT M07/M07 A3031 RMK A01 T10681072  RH  097%=      5-min Rain = 0
KJTS 090955Z 30006KT M07/M07 A3031 RMK A01 T10671072  RH  096%=      5-min Rain = 0
KJTS 091000Z 31006KT M07/M08 A3031 RMK A01 T10721079  RH  094%=      5-min Rain = 0
KJTS 091005Z 32006KT M07/M08 A3031 RMK A01 T10711076  RH  096%=      5-min Rain = 0
KJTS 091010Z 32006KT M07/M08 A3031 RMK A01 T10701075  RH  096%=      5-min Rain = 0
KJTS 091015Z 31005KT M07/M08 A3031 RMK A01 T10691075  RH  096%=      5-min Rain = 0
KJTS 091020Z 31005KT M07/M08 A3032 RMK A01 T10691075  RH  096%=      5-min Rain = 0
KJTS 091025Z 30006KT M07/M08 A3032 RMK A01 T10701077  RH  095%=      5-min Rain = 0
KJTS 091030Z 30006KT M07/M08 A3032 RMK A01 T10731079  RH  095%=      5-min Rain = 0
KJTS 091035Z 29006KT M07/M08 A3032 RMK A01 T10701075  RH  096%=      5-min Rain = 0
KJTS 091040Z 29006KT M07/M07 A3032 RMK A01 T10661071  RH  096%=      5-min Rain = 0
KJTS 091045Z 30005KT M07/M07 A3032 RMK A01 T10651072  RH  095%=      5-min Rain = 0
KJTS 091050Z 30006KT M07/M07 A3032 RMK A01 T10661073  RH  094%=      5-min Rain = 0
KJTS 091055Z 31006KT M07/M08 A3032 RMK A01 T10671075  RH  094%=      5-min Rain = 0
KJTS 091100Z 31005KT M07/M07 A3033 RMK A01 T10661073  RH  095%=      5-min Rain = 0
KJTS 091105Z 31005KT M07/M07 A3033 RMK A01 T10651072  RH  095%=      5-min Rain = 0
KJTS 091110Z 30005KT M07/M07 A3033 RMK A01 T10651073  RH  094%=      5-min Rain = 0
KJTS 091115Z 30005KT M07/M08 A3033 RMK A01 T10671075  RH  094%=      5-min Rain = 0
KJTS 091120Z 30005KT M07/M07 A3033 RMK A01 T10651073  RH  094%=      5-min Rain = 0
KJTS 091125Z 31005KT M07/M07 A3033 RMK A01 T10661074  RH  094%=      5-min Rain = 0
KJTS 091130Z 30005KT M07/M08 A3034 RMK A01 T10691078  RH  093%=      5-min Rain = 0
KJTS 091135Z 31005KT M07/M08 A3034 RMK A01 T10691077  RH  094%=      5-min Rain = 0
KJTS 091140Z 31005KT M07/M08 A3034 RMK A01 T10691077  RH  094%=      5-min Rain = 0
KJTS 091145Z 31005KT M07/M08 A3034 RMK A01 T10701077  RH  095%=      5-min Rain = 0
KJTS 091150Z 31005KT M07/M08 A3034 RMK A01 T10701077  RH  095%=      5-min Rain = 0
KJTS 091155Z 31005KT M07/M08 A3034 RMK A01 T10721079  RH  094%=      5-min Rain = 0
KJTS 091200Z 31006KT M07/M08 A3034 RMK A01 T10741082  RH  094%=      5-min Rain = 0
KJTS 091205Z 32006KT M08/M09 A3034 RMK A01 T10771085  RH  094%=      5-min Rain = 0
KJTS 091210Z 31006KT M08/M09 A3034 RMK A01 T10791086  RH  094%=      5-min Rain = 0
KJTS 091215Z 31006KT M08/M09 A3034 RMK A01 T10781085  RH  095%=      5-min Rain = 0
KJTS 091220Z 31006KT M08/M08 A3035 RMK A01 T10761082  RH  095%=      5-min Rain = 0
KJTS 091225Z 31006KT M08/M08 A3035 RMK A01 T10751083  RH  094%=      5-min Rain = 0
KJTS 091230Z 31005KT M08/M09 A3035 RMK A01 T10771085  RH  094%=      5-min Rain = 0
KJTS 091235Z 32005KT M08/M08 A3035 RMK A01 T10761084  RH  094%=      5-min Rain = 0
KJTS 091240Z 31005KT M08/M08 A3035 RMK A01 T10761084  RH  094%=      5-min Rain = 0
KJTS 091245Z 31005KT M08/M08 A3035 RMK A01 T10761084  RH  094%=      5-min Rain = 0
KJTS 091250Z 30005KT M07/M08 A3035 RMK A01 T10741082  RH  094%=      5-min Rain = 0
KJTS 091255Z 30005KT M07/M08 A3036 RMK A01 T10741083  RH  094%=      5-min Rain = 0
KJTS 091300Z 30005KT M08/M08 A3036 RMK A01 T10751084  RH  093%=      5-min Rain = 0
KJTS 091305Z 30005KT M08/M09 A3036 RMK A01 T10761085  RH  093%=      5-min Rain = 0
KJTS 091310Z 31006KT M08/M09 A3036 RMK A01 T10761085  RH  093%=      5-min Rain = 0
KJTS 091315Z 31006KT M08/M09 A3036 RMK A01 T10761086  RH  093%=      5-min Rain = 0
KJTS 091320Z 31006KT M08/M09 A3036 RMK A01 T10781087  RH  093%=      5-min Rain = 0
KJTS 091325Z 31006KT M08/M09 A3037 RMK A01 T10781087  RH  093%=      5-min Rain = 0
KJTS 091330Z 31006KT M08/M09 A3037 RMK A01 T10781087  RH  093%=      5-min Rain = 0
KJTS 091335Z 30006KT M08/M09 A3037 RMK A01 T10771087  RH  093%=      5-min Rain = 0
KJTS 091340Z 30006KT M08/M08 A3038 RMK A01 T10751084  RH  093%=      5-min Rain = 0
KJTS 091345Z 30006KT M08/M09 A3037 RMK A01 T10751086  RH  092%=      5-min Rain = 0
KJTS 091350Z 30005KT M08/M09 A3037 RMK A01 T10781089  RH  092%=      5-min Rain = 0
KJTS 091355Z 30005KT M08/M09 A3037 RMK A01 T10771087  RH  092%=      5-min Rain = 0
KJTS 091400Z 30006KT M08/M09 A3037 RMK A01 T10801091  RH  091%=      5-min Rain = 0
KJTS 091405Z 31005KT M08/M09 A3038 RMK A01 T10821092  RH  092%=      5-min Rain = 0
KJTS 091410Z 30005KT M08/M09 A3038 RMK A01 T10781087  RH  093%=      5-min Rain = 0
KJTS 091415Z 30005KT M08/M09 A3038 RMK A01 T10751085  RH  093%=      5-min Rain = 0
KJTS 091420Z 30005KT M07/M08 A3038 RMK A01 T10721081  RH  093%=      5-min Rain = 0
KJTS 091425Z 30005KT M07/M08 A3038 RMK A01 T10671077  RH  092%=      5-min Rain = 0
KJTS 091430Z 29004KT M06/M07 A3038 RMK A01 T10631074  RH  092%=      5-min Rain = 0
KJTS 091435Z 30004KT M06/M07 A3039 RMK A01 T10601072  RH  091%=      5-min Rain = 0
KJTS 091440Z 30004KT M06/M07 A3039 RMK A01 T10591071  RH  091%=      5-min Rain = 0
KJTS 091445Z 30004KT M06/M07 A3039 RMK A01 T10561068  RH  091%=      5-min Rain = 0
KJTS 091450Z 30005KT M06/M07 A3039 RMK A01 T10551068  RH  091%=      5-min Rain = 0
KJTS 091455Z 30004KT M05/M07 A3039 RMK A01 T10541066  RH  091%=      5-min Rain = 0
KJTS 091500Z 30004KT M05/M06 A304 RMK A01 T10511064  RH  091%=      5-min Rain = 0
KJTS 091505Z 30004KT M05/M06 A304 RMK A01 T10481061  RH  091%=      5-min Rain = 0
KJTS 091510Z 30004KT M05/M06 A304 RMK A01 T10451059  RH  090%=      5-min Rain = 0
KJTS 091515Z 31003KT M04/M06 A304 RMK A01 T10431057  RH  090%=      5-min Rain = 0
KJTS 091520Z 32003KT M04/M06 A304 RMK A01 T10401055  RH  090%=      5-min Rain = 0
KJTS 091525Z 33003KT M04/M05 A304 RMK A01 T10371052  RH  090%=      5-min Rain = 0
KJTS 091530Z 32003KT M03/M05 A3041 RMK A01 T10341050  RH  089%=      5-min Rain = 0
KJTS 091535Z 31004KT M03/M05 A3041 RMK A01 T10321049  RH  089%=      5-min Rain = 0
KJTS 091540Z 31004KT M03/M05 A3041 RMK A01 T10291046  RH  088%=      5-min Rain = 0
KJTS 091545Z 30004KT M02/M04 A3041 RMK A01 T10241044  RH  087%=      5-min Rain = 0
KJTS 091550Z 31004KT M02/M04 A3041 RMK A01 T10201043  RH  085%=      5-min Rain = 0
KJTS 091555Z 32006KT M02/M04 A3041 RMK A01 T10171044  RH  082%=      5-min Rain = 0
KJTS 091600Z 32006KT M02/M05 A3041 RMK A01 T10151045  RH  081%=      5-min Rain = 0
KJTS 091605Z 31007KT M01/M05 A3042 RMK A01 T10121045  RH  079%=      5-min Rain = 0
KJTS 091610Z 31006KT M01/M05 A3042 RMK A01 T10111045  RH  078%=      5-min Rain = 0
KJTS 091615Z 31006KT M01/M04 A3042 RMK A01 T10081042  RH  078%=      5-min Rain = 0
KJTS 091620Z 31006KT M01/M04 A3042 RMK A01 T10061042  RH  077%=      5-min Rain = 0
KJTS 091625Z 31006KT M00/M04 A3042 RMK A01 T10041042  RH  076%=      5-min Rain = 0
KJTS 091630Z 30006KT M00/M04 A3042 RMK A01 T10021044  RH  074%=      5-min Rain = 0
KJTS 091635Z 31005KT M00/M04 A3042 RMK A01 T10011043  RH  074%=      5-min Rain = 0
KJTS 091640Z 31005KT 00/04 A3042 RMK A01 T00000-41  RH  074%=      5-min Rain = 0
KJTS 091645Z 31005KT 00/M04 A3042 RMK A01 T00021042  RH  073%=      5-min Rain = 0.01
KJTS 091650Z 32005KT 00/M04 A3042 RMK A01 T00041040  RH  073%=      5-min Rain = 0
KJTS 091655Z 31005KT 01/M04 A3042 RMK A01 T00071039  RH  072%=      5-min Rain = 0
KJTS 091700Z 32005KT 01/M04 A3042 RMK A01 T00101039  RH  070%=      5-min Rain = 0
KJTS 091705Z 32005KT 01/M04 A3042 RMK A01 T00121044  RH  066%=      5-min Rain = 0
KJTS 091710Z 32005KT 01/M04 A3042 RMK A01 T00141044  RH  066%=      5-min Rain = 0.01
KJTS 091715Z 32005KT 02/M05 A3042 RMK A01 T00151048  RH  063%=      5-min Rain = 0
KJTS 091720Z 32004KT 02/M05 A3042 RMK A01 T00171045  RH  064%=      5-min Rain = 0
KJTS 091725Z 32004KT 02/M04 A3042 RMK A01 T00191041  RH  065%=      5-min Rain = 0
KJTS 091730Z 32004KT 02/M04 A3041 RMK A01 T00201042  RH  064%=      5-min Rain = 0.01
KJTS 091735Z 33003KT 02/M04 A3041 RMK A01 T00221037  RH  065%=      5-min Rain = 0
KJTS 091740Z 31004KT 02/M04 A3041 RMK A01 T00221037  RH  066%=      5-min Rain = 0
KJTS 091745Z 31004KT 02/M03 A3041 RMK A01 T00211033  RH  068%=      5-min Rain = 0
KJTS 091750Z 32004KT 02/M04 A3041 RMK A01 T00211037  RH  066%=      5-min Rain = 0.02
KJTS 091755Z 32004KT 02/M04 A3041 RMK A01 T00221041  RH  063%=      5-min Rain = 0.02
KJTS 091800Z 33005KT 02/M05 A3041 RMK A01 T00231052  RH  058%=      5-min Rain = 0.01
KJTS 091805Z 33004KT 03/M06 A304 RMK A01 T00261057  RH  054%=      5-min Rain = 0.02
KJTS 091810Z 33004KT 03/M06 A304 RMK A01 T00281059  RH  053%=      5-min Rain = 0.01
KJTS 091815Z 33005KT 03/M06 A304 RMK A01 T00301057  RH  053%=      5-min Rain = 0
KJTS 091820Z 33005KT 03/M06 A304 RMK A01 T00311059  RH  052%=      5-min Rain = 0
KJTS 091825Z 33005KT 03/M06 A3039 RMK A01 T00321062  RH  050%=      5-min Rain = 0
KJTS 091830Z 33005KT 03/M06 A3039 RMK A01 T00331062  RH  050%=      5-min Rain = 0
KJTS 091835Z 32005KT 03/M06 A3039 RMK A01 T00341062  RH  050%=      5-min Rain = 0
KJTS 091840Z 32006KT 03/M06 A3039 RMK A01 T00341059  RH  051%=      5-min Rain = 0
KJTS 091845Z 32005KT 04/M06 A3039 RMK A01 T00361057  RH  051%=      5-min Rain = 0
KJTS 091850Z 33004KT 04/M06 A3038 RMK A01 T00381059  RH  049%=      5-min Rain = 0
KJTS 091855Z 32004KT 04/M06 A3038 RMK A01 T00391058  RH  049%=      5-min Rain = 0
KJTS 091900Z 32003KT 04/M05 A3038 RMK A01 T00411053  RH  051%=      5-min Rain = 0
KJTS 091905Z 32003KT 04/M06 A3037 RMK A01 T00421055  RH  049%=      5-min Rain = 0
KJTS 091910Z 32004KT 04/M06 A3037 RMK A01 T00431055  RH  049%=      5-min Rain = 0
KJTS 091915Z 32004KT 04/M06 A3037 RMK A01 T00421058  RH  048%=      5-min Rain = 0
KJTS 091920Z 33004KT 04/M06 A3037 RMK A01 T00431059  RH  047%=      5-min Rain = 0
KJTS 091925Z 32005KT 04/M06 A3037 RMK A01 T00431057  RH  048%=      5-min Rain = 0
KJTS 091930Z 33005KT 04/M06 A3037 RMK A01 T00431060  RH  047%=      5-min Rain = 0
KJTS 091935Z 31005KT 04/M05 A3036 RMK A01 T00431054  RH  049%=      5-min Rain = 0
KJTS 091940Z 33004KT 04/M06 A3036 RMK A01 T00441056  RH  048%=      5-min Rain = 0
KJTS 091945Z 30005KT 05/M06 A3036 RMK A01 T00461055  RH  048%=      5-min Rain = 0
KJTS 091950Z 31006KT 05/M06 A3036 RMK A01 T00451057  RH  047%=      5-min Rain = 0
KJTS 091955Z 32005KT 05/M06 A3036 RMK A01 T00451058  RH  047%=      5-min Rain = 0
KJTS 092000Z 33005KT 05/M06 A3036 RMK A01 T00451059  RH  047%=      5-min Rain = 0
KJTS 092005Z 31005KT 05/M05 A3036 RMK A01 T00461054  RH  048%=      5-min Rain = 0
KJTS 092010Z 33005KT 05/M05 A3036 RMK A01 T00471047  RH  050%=      5-min Rain = 0
KJTS 092015Z 32005KT 05/M06 A3036 RMK A01 T00471059  RH  046%=      5-min Rain = 0
KJTS 092020Z 33005KT 05/M06 A3036 RMK A01 T00481057  RH  047%=      5-min Rain = 0
KJTS 092025Z 33005KT 05/M06 A3036 RMK A01 T00491056  RH  047%=      5-min Rain = 0
KJTS 092030Z 34005KT 05/M06 A3036 RMK A01 T00491060  RH  045%=      5-min Rain = 0
KJTS 092035Z 33005KT 05/M06 A3036 RMK A01 T00501060  RH  045%=      5-min Rain = 0
KJTS 092040Z 34004KT 05/M07 A3036 RMK A01 T00511071  RH  041%=      5-min Rain = 0
KJTS 092045Z 33005KT 05/M07 A3036 RMK A01 T00521070  RH  041%=      5-min Rain = 0
KJTS 092050Z 33006KT 05/M07 A3036 RMK A01 T00521073  RH  040%=      5-min Rain = 0
KJTS 092055Z 34005KT 05/M07 A3036 RMK A01 T00511071  RH  041%=      5-min Rain = 0
KJTS 092100Z 35006KT 05/M06 A3036 RMK A01 T00521064  RH  043%=      5-min Rain = 0
KJTS 092105Z 36007KT 05/M07 A3036 RMK A01 T00521070  RH  041%=      5-min Rain = 0
KJTS 092110Z 35007KT 05/M07 A3036 RMK A01 T00521067  RH  042%=      5-min Rain = 0
KJTS 092115Z 35007KT 05/M07 A3035 RMK A01 T00511070  RH  041%=      5-min Rain = 0
KJTS 092120Z 35007KT 05/M07 A3035 RMK A01 T00521072  RH  040%=      5-min Rain = 0
KJTS 092125Z 35007KT 05/M07 A3036 RMK A01 T00521067  RH  042%=      5-min Rain = 0
KJTS 092130Z 35007KT 05/M07 A3035 RMK A01 T00531071  RH  040%=      5-min Rain = 0
KJTS 092135Z 35006KT 05/M06 A3035 RMK A01 T00531062  RH  043%=      5-min Rain = 0
KJTS 092140Z 35006KT 05/M06 A3035 RMK A01 T00541062  RH  043%=      5-min Rain = 0
KJTS 092145Z 34006KT 05/M06 A3035 RMK A01 T00541062  RH  043%=      5-min Rain = 0
KJTS 092150Z 35007KT 05/M06 A3035 RMK A01 T00541059  RH  044%=      5-min Rain = 0
KJTS 092155Z 35007KT 05/M06 A3035 RMK A01 T00531060  RH  044%=      5-min Rain = 0
KJTS 092200Z 35007KT 05/M06 A3035 RMK A01 T00531060  RH  044%=      5-min Rain = 0
KJTS 092205Z 34007KT 05/M06 A3035 RMK A01 T00531055  RH  046%=      5-min Rain = 0
KJTS 092210Z 35008KT 05/M06 A3035 RMK A01 T00531059  RH  044%=      5-min Rain = 0
KJTS 092215Z 35006KT 05/M06 A3035 RMK A01 T00531061  RH  044%=      5-min Rain = 0
KJTS 092220Z 35006KT 05/M06 A3035 RMK A01 T00531057  RH  045%=      5-min Rain = 0
KJTS 092225Z 35007KT 05/M06 A3035 RMK A01 T00521058  RH  045%=      5-min Rain = 0
KJTS 092230Z 34007KT 05/M06 A3035 RMK A01 T00521056  RH  046%=      5-min Rain = 0
KJTS 092235Z 34009KT 05/M06 A3035 RMK A01 T00511062  RH  044%=      5-min Rain = 0
KJTS 092240Z 34007KT 05/M07 A3035 RMK A01 T00501066  RH  043%=      5-min Rain = 0
KJTS 092245Z 34005KT 05/M06 A3035 RMK A01 T00501063  RH  044%=      5-min Rain = 0
KJTS 092250Z 34005KT 05/M06 A3036 RMK A01 T00501057  RH  046%=      5-min Rain = 0
KJTS 092255Z 34006KT 05/M06 A3036 RMK A01 T00481063  RH  044%=      5-min Rain = 0
KJTS 092300Z 34007KT 05/M07 A3036 RMK A01 T00471071  RH  042%=      5-min Rain = 0
KJTS 092305Z 34006KT 05/M07 A3036 RMK A01 T00451068  RH  044%=      5-min Rain = 0
KJTS 092310Z 34006KT 04/M07 A3036 RMK A01 T00431069  RH  044%=      5-min Rain = 0
KJTS 092315Z 34005KT 04/M07 A3036 RMK A01 T00411067  RH  045%=      5-min Rain = 0
KJTS 092320Z 34005KT 04/M07 A3036 RMK A01 T00391067  RH  046%=      5-min Rain = 0
KJTS 092325Z 33005KT 04/M06 A3036 RMK A01 T00371064  RH  048%=      5-min Rain = 0
KJTS 092330Z 32005KT 03/M06 A3036 RMK A01 T00321062  RH  050%=      5-min Rain = 0
KJTS 092335Z 33005KT 03/M07 A3036 RMK A01 T00301065  RH  050%=      5-min Rain = 0
KJTS 092340Z 33005KT 03/M06 A3036 RMK A01 T00271064  RH  051%=      5-min Rain = 0
KJTS 092345Z 33004KT 03/M07 A3036 RMK A01 T00261065  RH  051%=      5-min Rain = 0
KJTS 092350Z 33004KT 03/M06 A3036 RMK A01 T00261063  RH  052%=      5-min Rain = 0
KJTS 092355Z 33004KT 02/M06 A3036 RMK A01 T00211058  RH  056%=      5-min Rain = 0
KJTS 100000Z 32004KT 02/M06 A3036 RMK A01 T00161055  RH  059%=      5-min Rain = 0
KJTS 100005Z 32003KT 02/M06 A3036 RMK A01 T00171056  RH  058%=      5-min Rain = 0
KJTS 100010Z 32004KT 02/M06 A3036 RMK A01 T00191056  RH  058%=      5-min Rain = 0
KJTS 100015Z 33004KT 02/M05 A3036 RMK A01 T00201054  RH  058%=      5-min Rain = 0
KJTS 100020Z 33004KT 02/M05 A3036 RMK A01 T00211054  RH  058%=      5-min Rain = 0
KJTS 100025Z 32004KT 02/M05 A3036 RMK A01 T00161049  RH  062%=      5-min Rain = 0
KJTS 100030Z 32004KT 01/M04 A3036 RMK A01 T00121044  RH  067%=      5-min Rain = 0
KJTS 100035Z 31005KT 01/M04 A3036 RMK A01 T00081043  RH  069%=      5-min Rain = 0
KJTS 100040Z 30005KT 01/M05 A3036 RMK A01 T00101046  RH  066%=      5-min Rain = 0
KJTS 100045Z 30005KT 01/M05 A3036 RMK A01 T00111045  RH  067%=      5-min Rain = 0
KJTS 100050Z 31005KT 01/M04 A3036 RMK A01 T00081041  RH  070%=      5-min Rain = 0
KJTS 100055Z 31005KT 01/M04 A3036 RMK A01 T00061042  RH  070%=      5-min Rain = 0
KJTS 100100Z 30005KT 01/M04 A3036 RMK A01 T00081043  RH  069%=      5-min Rain = 0
KJTS 100105Z 30005KT 01/M04 A3036 RMK A01 T00091044  RH  068%=      5-min Rain = 0
KJTS 100110Z 30005KT 01/M04 A3036 RMK A01 T00081041  RH  070%=      5-min Rain = 0
KJTS 100115Z 31005KT 01/M04 A3036 RMK A01 T00071040  RH  071%=      5-min Rain = 0
KJTS 100120Z 31005KT 00/M04 A3036 RMK A01 T00041041  RH  072%=      5-min Rain = 0
KJTS 100125Z 31005KT 00/M04 A3037 RMK A01 T00021042  RH  072%=      5-min Rain = 0
KJTS 100130Z 30004KT 00/M04 A3037 RMK A01 T00011042  RH  073%=      5-min Rain = 0
KJTS 100135Z 30004KT 00/M04 A3037 RMK A01 T00021041  RH  073%=      5-min Rain = 0
KJTS 100140Z 29004KT 00/M04 A3037 RMK A01 T00021040  RH  073%=      5-min Rain = 0
KJTS 100145Z 27004KT 00/M04 A3037 RMK A01 T00021042  RH  073%=      5-min Rain = 0
KJTS 100150Z 28004KT 00/05 A3037 RMK A01 T00000-45  RH  072%=      5-min Rain = 0
KJTS 100155Z 28005KT 00/05 A3037 RMK A01 T00000-45  RH  072%=      5-min Rain = 0
KJTS 100200Z 27003KT M00/M05 A3038 RMK A01 T10021046  RH  073%=      5-min Rain = 0
KJTS 100205Z 29004KT M00/M05 A3038 RMK A01 T10041047  RH  073%=      5-min Rain = 0
KJTS 100210Z 28005KT M01/M05 A3038 RMK A01 T10051046  RH  074%=      5-min Rain = 0
KJTS 100215Z 28006KT M01/M04 A3038 RMK A01 T10051044  RH  075%=      5-min Rain = 0
KJTS 100220Z 28006KT M01/M05 A3038 RMK A01 T10061045  RH  075%=      5-min Rain = 0
KJTS 100225Z 28006KT M01/M05 A3038 RMK A01 T10061045  RH  076%=      5-min Rain = 0
KJTS 100230Z 28006KT M01/M05 A3039 RMK A01 T10081045  RH  076%=      5-min Rain = 0
KJTS 100235Z 28005KT M01/M05 A3039 RMK A01 T10091045  RH  077%=      5-min Rain = 0
KJTS 100240Z 29005KT M01/M05 A3039 RMK A01 T10101045  RH  078%=      5-min Rain = 0
KJTS 100245Z 29006KT M01/M05 A3039 RMK A01 T10111045  RH  078%=      5-min Rain = 0
KJTS 100250Z 29006KT M01/M04 A3039 RMK A01 T10131044  RH  080%=      5-min Rain = 0
KJTS 100255Z 28005KT M01/M04 A3039 RMK A01 T10131043  RH  081%=      5-min Rain = 0
KJTS 100300Z 28006KT M01/M04 A3039 RMK A01 T10141043  RH  081%=      5-min Rain = 0
KJTS 100305Z 29006KT M01/M04 A3039 RMK A01 T10141042  RH  081%=      5-min Rain = 0
KJTS 100310Z 29005KT M01/M04 A3039 RMK A01 T10141042  RH  081%=      5-min Rain = 0
KJTS 100315Z 29005KT M01/M04 A3039 RMK A01 T10141042  RH  082%=      5-min Rain = 0
KJTS 100320Z 28006KT M01/M04 A3039 RMK A01 T10141041  RH  082%=      5-min Rain = 0
KJTS 100325Z 29007KT M01/M04 A3039 RMK A01 T10131038  RH  083%=      5-min Rain = 0
KJTS 100330Z 29007KT M01/M04 A3039 RMK A01 T10121037  RH  083%=      5-min Rain = 0
KJTS 100335Z 29006KT M01/M04 A3039 RMK A01 T10131038  RH  084%=      5-min Rain = 0
KJTS 100340Z 29006KT M01/M04 A3038 RMK A01 T10131038  RH  084%=      5-min Rain = 0
KJTS 100345Z 28006KT M02/M04 A3038 RMK A01 T10151039  RH  084%=      5-min Rain = 0
KJTS 100350Z 28006KT M02/M04 A3038 RMK A01 T10161039  RH  085%=      5-min Rain = 0
KJTS 100355Z 29005KT M02/M04 A3038 RMK A01 T10181041  RH  084%=      5-min Rain = 0
KJTS 100400Z 28006KT M02/M04 A3039 RMK A01 T10201041  RH  086%=      5-min Rain = 0
KJTS 100405Z 29007KT M02/M04 A3039 RMK A01 T10201040  RH  086%=      5-min Rain = 0
KJTS 100410Z 28007KT M02/M04 A3038 RMK A01 T10211041  RH  087%=      5-min Rain = 0
KJTS 100415Z 28007KT M02/M04 A3038 RMK A01 T10231041  RH  088%=      5-min Rain = 0
KJTS 100420Z 28007KT M03/M04 A3039 RMK A01 T10251042  RH  088%=      5-min Rain = 0
KJTS 100425Z 28007KT M03/M04 A3039 RMK A01 T10251042  RH  089%=      5-min Rain = 0
KJTS 100430Z 28007KT M03/M04 A3039 RMK A01 T10261042  RH  089%=      5-min Rain = 0
KJTS 100435Z 28007KT M03/M04 A3039 RMK A01 T10271042  RH  090%=      5-min Rain = 0
KJTS 100440Z 28007KT M03/M04 A3039 RMK A01 T10271042  RH  090%=      5-min Rain = 0
KJTS 100445Z 28007KT M03/M04 A3039 RMK A01 T10281042  RH  090%=      5-min Rain = 0
KJTS 100450Z 28007KT M03/M04 A3039 RMK A01 T10281043  RH  090%=      5-min Rain = 0
KJTS 100455Z 28007KT M03/M04 A3039 RMK A01 T10291043  RH  090%=      5-min Rain = 0
KJTS 100500Z 28007KT M03/M04 A3039 RMK A01 T10281042  RH  091%=      5-min Rain = 0
KJTS 100505Z 28007KT M03/M04 A3039 RMK A01 T10281042  RH  090%=      5-min Rain = 0
KJTS 100510Z 28008KT M03/M04 A3039 RMK A01 T10281042  RH  090%=      5-min Rain = 0
KJTS 100515Z 28008KT M03/M04 A3038 RMK A01 T10271041  RH  090%=      5-min Rain = 0
KJTS 100520Z 27007KT M03/M04 A3038 RMK A01 T10271042  RH  090%=      5-min Rain = 0
KJTS 100525Z 27007KT M03/M04 A3038 RMK A01 T10271041  RH  091%=      5-min Rain = 0
KJTS 100530Z 28006KT M03/M04 A3038 RMK A01 T10281040  RH  091%=      5-min Rain = 0
KJTS 100535Z 27006KT M03/M04 A3038 RMK A01 T10291041  RH  091%=      5-min Rain = 0
KJTS 100540Z 26006KT M03/M04 A3038 RMK A01 T10291041  RH  092%=      5-min Rain = 0
KJTS 100545Z 27006KT M03/M04 A3038 RMK A01 T10291040  RH  093%=      5-min Rain = 0
KJTS 100550Z 27006KT M03/M04 A3038 RMK A01 T10291040  RH  093%=      5-min Rain = 0
KJTS 100555Z 28006KT M03/M04 A3038 RMK A01 T10301040  RH  093%=      5-min Rain = 0

Page generated in 0.0332 seconds.